Data for 05/15/2013

Time Sea-Level Adjusted Pressure Absolute Pressure Temperature Relative Humidity Dew Point   
(mb) (inHg) (mb) (inHg) (C) (F) (%) (C) (F)
00:05 1018 30.06 848 25.04 9.6 49.3 40 -3.2 26.3
00:10 1018 30.06 848 25.04 9.5 49.1 41 -3 26.7
00:15 1018 30.06 848 25.04 9.1 48.3 42 -3.2 26.3
00:20 1018 30.06 848 25.04 9 48.3 39 -4.3 24.2
00:25 1018 30.06 848 25.04 9.2 48.5 38 -4.5 23.8
00:30 1018 30.06 848 25.04 9.3 48.7 36 -4.9 23.1
00:35 1019 30.09 848 25.04 9.5 49.2 36 -4.8 23.3
00:40 1019 30.09 848 25.04 9.5 49.1 37 -4.3 24.2
00:45 1019 30.09 848 25.04 9.5 49.1 37 -4.6 23.7
00:50 1019 30.09 848 25.04 9.6 49.3 34 -5.4 22.2
00:55 1019 30.09 848 25.04 9.6 49.3 34 -5.6 21.9
01:00 1019 30.09 848 25.04 9.7 49.4 37 -4.2 24.4
01:05 1019 30.09 848 25.04 9.5 49 38 -4.3 24.3
01:10 1019 30.09 848 25.04 9.4 48.8 38 -4.2 24.4
01:15 1019 30.09 848 25.04 9.4 48.9 38 -4.1 24.7
01:20 1019 30.09 848 25.04 9.1 48.4 39 -4 24.8
01:25 1019 30.09 848 25.04 8.9 48 40 -3.8 25.2
01:30 1019 30.09 848 25.04 8.7 47.6 43 -3.3 26.1
01:35 1019 30.09 848 25.04 8.4 47.2 43 -3.5 25.7
01:40 1019 30.09 848 25.04 8.4 47.1 43 -3.4 25.8
01:45 1019 30.09 848 25.04 8.3 46.9 44 -3.4 25.9
01:50 1019 30.09 848 25.04 7.8 46.1 46 -3.1 26.5
01:55 1019 30.09 848 25.04 7.4 45.4 47 -3.1 26.4
02:00 1019 30.09 848 25.04 7.3 45.1 48 -3 26.5
02:05 1019 30.09 848 25.04 6.9 44.5 50 -2.9 26.8
02:10 1019 30.09 848 25.04 6.7 44 49 -3.3 26
02:15 1019 30.09 848 25.04 6.7 44.1 49 -3.3 26
02:20 1019 30.09 848 25.04 6.9 44.5 46 -4 24.9
02:25 1019 30.09 848 25.04 7.3 45.2 44 -4 24.8
02:30 1019 30.09 848 25.04 7.3 45.2 46 -3.7 25.4
02:35 1019 30.09 848 25.04 7 44.6 47 -3.5 25.7
02:40 1019 30.09 848 25.04 6.8 44.2 48 -3.6 25.6
02:45 1019 30.09 848 25.04 6.5 43.8 49 -3.4 25.9
02:50 1019 30.09 848 25.04 6.4 43.5 49 -3.5 25.7
02:55 1019 30.09 848 25.04 6.3 43.3 50 -3.4 25.8
03:00 1019 30.09 848 25.04 6.2 43.2 50 -3.3 26.1
03:05 1019 30.09 848 25.04 6.1 43 50 -3.4 25.9
03:10 1019 30.09 848 25.04 6.1 43 51 -3.3 26
03:15 1019 30.09 848 25.04 6.2 43.1 50 -3.6 25.5
03:20 1019 30.09 848 25.04 6.2 43.1 49 -3.7 25.3
03:25 1019 30.09 848 25.04 6.1 43 50 -3.6 25.5
03:30 1019 30.09 848 25.04 6.1 42.9 49 -3.9 25.1
03:35 1019 30.09 848 25.04 6.1 42.9 48 -4 24.9
03:40 1019 30.09 848 25.04 6 42.8 47 -4.5 24
03:45 1019 30.09 848 25.04 6.4 43.5 44 -5 22.9
03:50 1019 30.09 848 25.04 6.6 43.9 44 -4.7 23.6
03:55 1019 30.09 848 25.04 6.5 43.6 43 -5.2 22.6
04:00 1019 30.09 848 25.04 6.6 43.9 42 -5.3 22.5
04:05 1019 30.09 848 25.04 6.7 44.1 42 -5.1 22.8
04:10 1019 30.09 848 25.04 6.8 44.2 43 -4.8 23.4
04:15 1019 30.09 848 25.04 6.7 44 44 -4.8 23.3
04:20 1019 30.09 848 25.04 6.5 43.7 44 -4.9 23.2
04:25 1019 30.09 848 25.04 6.2 43.2 45 -4.9 23.1
04:30 1019 30.09 848 25.04 6.1 43.1 46 -4.7 23.6
04:35 1019 30.09 848 25.04 5.9 42.7 46 -4.8 23.4
04:40 1019 30.09 848 25.04 5.9 42.6 45 -5 23
04:45 1019 30.09 848 25.04 5.8 42.4 47 -4.8 23.4
04:50 1019 30.09 848 25.04 5.7 42.3 46 -4.9 23.2
04:55 1019 30.09 848 25.04 5.6 42.1 48 -4.6 23.7
05:00 1019 30.09 848 25.04 5.4 41.7 48 -4.8 23.4
05:05 1019 30.09 848 25.04 5.5 41.8 48 -4.8 23.4
05:10 1019 30.09 848 25.04 5.7 42.3 47 -4.7 23.5
05:15 1019 30.09 848 25.04 5.8 42.4 47 -4.7 23.6
05:20 1019 30.09 848 25.04 5.9 42.6 46 -4.7 23.5
05:25 1019 30.09 848 25.04 6 42.7 46 -4.8 23.4
05:30 1019 30.09 848 25.04 5.9 42.7 47 -4.5 23.8
05:35 1019 30.09 848 25.04 6.1 43 44 -5.2 22.7
05:40 1019 30.09 848 25.04 6.5 43.6 46 -4.2 24.4
05:45 1019 30.09 848 25.04 6.4 43.5 45 -4.6 23.7
05:50 1019 30.09 848 25.04 6.4 43.6 45 -4.6 23.7
05:55 1019 30.09 848 25.04 6.5 43.7 45 -4.6 23.6
06:00 1019 30.09 848 25.04 6.7 44 44 -4.6 23.7
06:05 1019 30.09 848 25.04 6.8 44.3 43 -4.8 23.3
06:10 1019 30.09 848 25.04 7 44.6 43 -4.7 23.5
06:15 1019 30.09 849 25.07 7.3 45.1 43 -4.3 24.2
06:20 1019 30.09 849 25.07 7.4 45.3 43 -4.3 24.2
06:25 1019 30.09 849 25.07 7.7 45.9 41 -4.8 23.3
06:30 1019 30.09 849 25.07 8 46.4 40 -4.8 23.3
06:35 1019 30.09 849 25.07 8.4 47 39 -4.8 23.4
06:40 1019 30.09 849 25.07 8.6 47.5 39 -4.6 23.8
06:45 1019 30.09 849 25.07 9 48.2 38 -4.6 23.8
06:50 1019 30.09 849 25.07 9.4 49 36 -4.9 23.1
06:55 1019 30.09 849 25.07 9.6 49.2 35 -5 23
07:00 1019 30.09 848 25.04 9.8 49.7 34 -5.2 22.6
07:05 1019 30.09 848 25.04 10.4 50.7 33 -5 22.9
07:10 1019 30.09 848 25.04 10.9 51.7 32 -5.1 22.9
07:15 1019 30.09 849 25.07 11.4 52.6 32 -4.8 23.3
07:20 1019 30.09 848 25.04 11.7 53.1 32 -4.4 24.1
07:25 1019 30.09 848 25.04 12.1 53.8 28 -5.7 21.7
07:30 1019 30.09 849 25.07 12.4 54.4 28 -5.5 22
07:35 1019 30.09 848 25.04 12.3 54.2 29 -5.2 22.6
07:40 1019 30.09 848 25.04 12.4 54.2 28 -5.7 21.8
07:45 1019 30.09 848 25.04 12.9 55.2 28 -5.2 22.6
07:50 1019 30.09 848 25.04 12.9 55.2 27 -5.4 22.3
07:55 1019 30.09 848 25.04 13.5 56.3 27 -5.1 22.8
08:00 1019 30.09 848 25.04 13.4 56.2 27 -5.1 22.9
08:05 1019 30.09 848 25.04 13.4 56.2 27 -4.9 23.1
08:10 1019 30.09 848 25.04 13.6 56.5 27 -5 23
08:15 1019 30.09 848 25.04 13.5 56.2 28 -4.5 23.9
08:20 1019 30.09 848 25.04 13.4 56.1 28 -4.7 23.5
08:25 1019 30.09 848 25.04 13.4 56 29 -4.3 24.2
08:30 1019 30.09 848 25.04 14 57.2 27 -4.5 24
08:35 1019 30.09 848 25.04 14.8 58.6 27 -4.1 24.6
08:40 1019 30.09 848 25.04 15.3 59.5 26 -4.3 24.3
08:45 1019 30.09 848 25.04 15.5 59.9 27 -3.5 25.7
08:50 1019 30.09 848 25.04 15.8 60.4 25 -3.9 25
08:55 1019 30.09 848 25.04 15.9 60.7 26 -3.4 25.9
09:00 1019 30.09 848 25.04 15.1 59.2 27 -3.9 25
09:05 1019 30.09 848 25.04 15.6 60.2 25 -4.1 24.7
09:10 1018 30.06 848 25.04 15.5 60 27 -3.4 25.8
09:15 1018 30.06 848 25.04 15.2 59.4 28 -3.3 26
09:20 1018 30.06 848 25.04 15.6 60.1 27 -3.4 25.9
09:25 1018 30.06 847 25.01 16.5 61.8 25 -3.2 26.2
09:30 1018 30.06 847 25.01 16.2 61.2 25 -3.6 25.5
09:35 1018 30.06 847 25.01 16.5 61.8 25 -3.3 26
09:40 1018 30.06 847 25.01 16.1 61 25 -3.7 25.3
09:45 1018 30.06 847 25.01 16.2 61.2 25 -3.8 25.2
09:50 1018 30.06 847 25.01 16.1 60.9 25 -4.1 24.7
09:55 1018 30.06 847 25.01 16.5 61.7 24 -4.2 24.4
10:00 1018 30.06 847 25.01 17.4 63.4 21 -5.1 22.9
10:05 1018 30.06 847 25.01 17.6 63.7 22 -4.1 24.7
10:10 1018 30.06 847 25.01 18 64.4 21 -4.6 23.8
10:15 1018 30.06 847 25.01 17.3 63.2 24 -3.6 25.5
10:20 1018 30.06 847 25.01 17.1 62.8 24 -3.4 25.8
10:25 1018 30.06 847 25.01 17 62.6 26 -2.7 27.2
10:30 1018 30.06 847 25.01 17.5 63.5 23 -3.5 25.6
10:35 1018 30.06 847 25.01 17.6 63.8 24 -3.1 26.4
10:40 1018 30.06 847 25.01 16.6 61.9 24 -4.2 24.5
10:45 1018 30.06 847 25.01 17.3 63.1 23 -3.7 25.3
10:50 1018 30.06 847 25.01 17.9 64.1 22 -3.8 25.1
10:55 1018 30.06 847 25.01 17.9 64.2 22 -4.3 24.3
11:00 1017 30.03 847 25.01 18.4 65 22 -3.8 25.1
11:05 1017 30.03 847 25.01 18.2 64.8 21 -4.3 24.2
11:10 1017 30.03 847 25.01 18.6 65.5 22 -3.3 26.1
11:15 1017 30.03 846 24.98 18.2 64.8 21 -4.5 23.9
11:20 1017 30.03 846 24.98 18.9 66.1 19 -4.7 23.5
11:25 1017 30.03 846 24.98 19 66.3 19 -4.7 23.6
11:30 1017 30.03 846 24.98 19.3 66.7 19 -4.6 23.7
11:35 1017 30.03 846 24.98 19.4 67 20 -4.1 24.7
11:40 1017 30.03 846 24.98 18.9 66 21 -4 24.7
11:45 1017 30.03 846 24.98 18.6 65.5 21 -3.8 25.1
11:50 1017 30.03 846 24.98 19 66.2 20 -4.2 24.5
11:55 1017 30.03 846 24.98 19.4 66.9 21 -3.6 25.4
12:00 1017 30.03 846 24.98 19 66.2 21 -3.6 25.5
12:05 1017 30.03 846 24.98 19.3 66.8 20 -3.9 25
12:10 1017 30.03 846 24.98 19.7 67.5 20 -4 24.8
12:15 1017 30.03 846 24.98 19.9 67.9 19 -3.9 24.9
12:20 1016 30 846 24.98 19.3 66.8 21 -3.1 26.4
12:25 1016 30 846 24.98 19.6 67.2 20 -4 24.7
12:30 1016 30 846 24.98 19.1 66.4 22 -3.1 26.4
12:35 1016 30 846 24.98 19.3 66.8 21 -3.5 25.7
12:40 1016 30 845 24.95 20.1 68.2 20 -3.1 26.4
12:45 1016 30 845 24.95 20.1 68.2 20 -3.1 26.4
12:50 1016 30 845 24.95 20.2 68.4 21 -2.8 26.9
12:55 1016 30 845 24.95 19.9 67.8 20 -3.4 25.9
13:00 1016 30 845 24.95 20.1 68.1 20 -3.4 25.9
13:05 1016 30 845 24.95 20.1 68.3 19 -3.7 25.3
13:10 1016 30 845 24.95 20.5 68.9 20 -3 26.5
13:15 1016 30 845 24.95 21.1 69.9 18 -3.7 25.4
13:20 1016 30 845 24.95 20.9 69.6 20 -2.9 26.7
13:25 1016 30 845 24.95 20.7 69.3 19 -3.4 26
13:30 1016 30 845 24.95 20.9 69.5 19 -3.1 26.3
13:35 1016 30 845 24.95 21.2 70.2 19 -3.3 26.1
13:40 1016 30 845 24.95 21.1 69.9 19 -3.2 26.3
13:45 1016 30 845 24.95 19.4 67 20 -3.7 25.4
13:50 1015 29.97 845 24.95 19.5 67 20 -3.7 25.3
13:55 1015 29.97 845 24.95 19.2 66.6 21 -3.7 25.3
14:00 1015 29.97 845 24.95 19.2 66.5 21 -3.8 25.1
14:05 1015 29.97 845 24.95 20.1 68.2 19 -3.8 25.2
14:10 1015 29.97 845 24.95 19.3 66.7 20 -4.1 24.6
14:15 1015 29.97 844 24.92 19.4 66.8 20 -4.1 24.6
14:20 1015 29.97 844 24.92 19.8 67.6 20 -3.7 25.3
14:25 1015 29.97 844 24.92 20.5 68.8 19 -4 24.9
14:30 1015 29.97 844 24.92 20 68 19 -3.9 24.9
14:35 1015 29.97 844 24.92 19.9 67.8 20 -3.6 25.6
14:40 1015 29.97 844 24.92 19.9 67.8 20 -3.8 25.2
14:45 1015 29.97 844 24.92 19.8 67.6 20 -3.4 26
14:50 1015 29.97 844 24.92 20 68 20 -3.7 25.3
14:55 1015 29.97 844 24.92 20 67.9 20 -3.6 25.6
15:00 1015 29.97 844 24.92 19.7 67.4 20 -4.1 24.7
15:05 1015 29.97 844 24.92 20 67.9 20 -3.8 25.1
15:10 1015 29.97 844 24.92 20 67.9 20 -3.7 25.4
15:15 1015 29.97 844 24.92 20 68 19 -4.1 24.6
15:20 1015 29.97 844 24.92 20.2 68.4 19 -4.3 24.3
15:25 1014 29.94 844 24.92 20.5 68.8 18 -4.4 24.2
15:30 1014 29.94 844 24.92 20.8 69.4 17 -4.8 23.3
15:35 1014 29.94 843 24.89 19.8 67.6 19 -4.4 24
15:40 1014 29.94 843 24.89 20.3 68.5 17 -5.3 22.4
15:45 1014 29.94 843 24.89 20.4 68.8 16 -6 21.2
15:50 1014 29.94 843 24.89 21 69.7 16 -5.8 21.6
15:55 1014 29.94 843 24.89 20.8 69.4 18 -4.6 23.7
16:00 1014 29.94 843 24.89 20.8 69.5 17 -4.6 23.7
16:05 1014 29.94 843 24.89 20.7 69.3 15 -6.4 20.4
16:10 1014 29.94 843 24.89 20.6 69 16 -5.8 21.6
16:15 1014 29.94 843 24.89 20.3 68.6 17 -5.6 22
16:20 1014 29.94 843 24.89 20.2 68.4 17 -5.8 21.5
16:25 1014 29.94 844 24.92 20 68 17 -5.9 21.3
16:30 1014 29.94 843 24.89 19.8 67.7 18 -5.2 22.7
16:35 1014 29.94 843 24.89 19.8 67.6 18 -4.9 23.2
16:40 1014 29.94 843 24.89 19.8 67.6 17 -5.5 22.2
16:45 1014 29.94 843 24.89 19.6 67.3 19 -4.9 23.3
16:50 1014 29.94 843 24.89 19 66.2 19 -4.7 23.6
16:55 1014 29.94 843 24.89 18.9 66 20 -4.7 23.6
17:00 1014 29.94 843 24.89 18.8 65.8 20 -4.7 23.6
17:05 1014 29.94 843 24.89 18.7 65.7 19 -5.4 22.3
17:10 1014 29.94 843 24.89 18.8 65.8 18 -6 21.2
17:15 1014 29.94 843 24.89 18.9 66 19 -5.3 22.5
17:20 1014 29.94 843 24.89 19 66.2 18 -5.8 21.5
17:25 1014 29.94 843 24.89 19.5 67 17 -5.8 21.5
17:30 1014 29.94 843 24.89 19.8 67.7 17 -5.5 22.1
17:35 1014 29.94 843 24.89 19.6 67.3 21 -2.9 26.8
17:40 1014 29.94 843 24.89 19.6 67.2 22 -2.9 26.9
17:45 1014 29.94 843 24.89 19.2 66.6 23 -2.2 28
17:50 1014 29.94 843 24.89 18.9 65.9 25 -1.7 29
17:55 1014 29.94 843 24.89 18.8 65.8 25 -1.6 29.2
18:00 1014 29.94 843 24.89 18.8 65.8 24 -2 28.5
18:05 1014 29.94 843 24.89 18.7 65.6 27 -0.8 30.6
18:10 1014 29.94 843 24.89 18.5 65.3 28 -0.4 31.2
18:15 1014 29.94 843 24.89 18.4 65.1 28 -0.3 31.4
18:20 1014 29.94 843 24.89 18.2 64.8 28 -0.3 31.5
18:25 1014 29.94 843 24.89 18.2 64.8 28 -0.4 31.3
18:30 1014 29.94 843 24.89 18.3 64.9 27 -1.2 29.9
18:35 1014 29.94 843 24.89 18.1 64.7 29 -0.1 31.8
18:40 1014 29.94 843 24.89 18.1 64.5 29 -0.1 31.8
18:45 1014 29.94 843 24.89 18.1 64.6 24 -2.6 27.3
18:50 1014 29.94 843 24.89 18.5 65.2 20 -4.7 23.6
18:55 1014 29.94 844 24.92 18.5 65.3 27 -0.9 30.3
19:00 1014 29.94 844 24.92 18.3 64.9 21 -4.1 24.5
19:05 1014 29.94 844 24.92 18.3 65 23 -3 26.6
19:10 1014 29.94 843 24.89 18.3 64.9 23 -3.1 26.4
19:15 1014 29.94 843 24.89 18.3 64.9 26 -1.6 29.1
19:20 1014 29.94 843 24.89 17.9 64.2 29 -0.1 31.8
19:25 1014 29.94 843 24.89 17.4 63.4 31 0.3 32.5
19:30 1014 29.94 843 24.89 17.2 62.9 32 0.3 32.6
19:35 1014 29.94 843 24.89 16.9 62.4 32 0.4 32.8
19:40 1014 29.94 843 24.89 16.7 62 34 0.8 33.5
19:45 1014 29.94 843 24.89 16.4 61.6 33 0.2 32.4
19:50 1014 29.94 843 24.89 16.3 61.4 32 -0.1 31.8
19:55 1014 29.94 843 24.89 16.1 61 33 0.1 32.1
20:00 1014 29.94 843 24.89 16 60.9 34 0.2 32.4
20:05 1014 29.94 843 24.89 16 60.7 34 0.1 32.2
20:10 1014 29.94 843 24.89 15.9 60.6 34 0.1 32.2
20:15 1014 29.94 843 24.89 15.8 60.5 34 0.1 32.3
20:20 1014 29.94 843 24.89 15.7 60.3 34 0.1 32.3
20:25 1014 29.94 843 24.89 15.6 60.1 35 0.2 32.3
20:30 1014 29.94 843 24.89 15.6 60.1 34 -0 32
20:35 1014 29.94 843 24.89 15.6 60 34 0 32
20:40 1014 29.94 844 24.92 15.6 60 34 -0 32
20:45 1014 29.94 844 24.92 15.5 60 35 0.1 32.1
20:50 1014 29.94 844 24.92 15.4 59.7 35 0.3 32.5
20:55 1014 29.94 844 24.92 15.2 59.4 36 0.4 32.7
21:00 1014 29.94 844 24.92 15.2 59.3 37 0.6 33
21:05 1014 29.94 843 24.89 15 58.9 38 0.9 33.5
21:10 1014 29.94 843 24.89 14.8 58.6 38 0.8 33.4
21:15 1014 29.94 843 24.89 14.7 58.5 38 0.6 33.1
21:20 1014 29.94 843 24.89 14.7 58.4 38 0.7 33.2
21:25 1014 29.94 843 24.89 14.7 58.4 38 0.7 33.2
21:30 1014 29.94 843 24.89 14.6 58.3 39 0.8 33.4
21:35 1014 29.94 843 24.89 14.5 58.1 39 0.7 33.3
21:40 1014 29.94 843 24.89 14.4 57.9 39 0.8 33.4
21:45 1014 29.94 843 24.89 14.3 57.7 40 0.8 33.4
21:50 1014 29.94 843 24.89 14.2 57.5 40 0.9 33.7
21:55 1014 29.94 843 24.89 14.1 57.3 41 1.1 34
22:00 1014 29.94 843 24.89 14 57.3 42 1.3 34.4
22:05 1014 29.94 843 24.89 14 57.2 42 1.5 34.8
22:10 1014 29.94 843 24.89 13.9 57 43 1.7 35
22:15 1014 29.94 843 24.89 13.8 56.8 44 2 35.5
22:20 1014 29.94 843 24.89 13.6 56.5 46 2.2 35.9
22:25 1014 29.94 843 24.89 13.5 56.3 46 2.3 36.2
22:30 1014 29.94 843 24.89 13.4 56.1 47 2.5 36.4
22:35 1014 29.94 843 24.89 13.3 55.9 48 2.6 36.6
22:40 1014 29.94 843 24.89 13.2 55.7 48 2.5 36.5
22:45 1014 29.94 843 24.89 13.1 55.6 48 2.4 36.4
22:50 1014 29.94 843 24.89 13.1 55.7 47 2.3 36.1
22:55 1014 29.94 843 24.89 13.2 55.7 47 2.3 36.2
23:00 1014 29.94 843 24.89 13.1 55.5 48 2.3 36.1
23:05 1014 29.94 843 24.89 13 55.3 48 2.3 36.1
23:10 1014 29.94 843 24.89 12.9 55.1 48 2.3 36.1
23:15 1014 29.94 843 24.89 12.7 54.9 49 2.3 36.2
23:20 1014 29.94 843 24.89 12.7 54.8 49 2.3 36.1
23:25 1014 29.94 843 24.89 12.7 54.8 49 2.3 36.1
23:30 1014 29.94 843 24.89 12.7 54.8 49 2.3 36.2
23:35 1014 29.94 843 24.89 12.5 54.6 50 2.5 36.5
23:40 1014 29.94 843 24.89 12.3 54.2 51 2.5 36.6
23:45 1014 29.94 843 24.89 12.2 53.9 52 2.6 36.7
23:50 1014 29.94 843 24.89 12 53.6 53 2.7 36.8
23:55 1014 29.94 843 24.89 11.8 53.3 53 2.7 36.8
24:00 1014 29.94 843 24.89 11.7 53 54 2.8 37